createdAt,value
2024-01-04T00:00:12.758Z,7.60
2024-01-04T00:03:03.076Z,7.60
2024-01-04T00:05:35.316Z,7.60
2024-01-04T00:08:06.211Z,7.50
2024-01-04T00:10:36.468Z,7.60
2024-01-04T00:13:06.772Z,7.70
2024-01-04T00:15:37.362Z,7.60
2024-01-04T00:18:07.864Z,7.70
2024-01-04T00:20:39.792Z,7.80
2024-01-04T00:23:09.838Z,7.80
2024-01-04T00:25:40.298Z,7.70
2024-01-04T00:28:10.420Z,7.70
2024-01-04T00:30:40.886Z,7.70
2024-01-04T00:33:11.401Z,7.60
2024-01-04T00:35:43.685Z,7.60
2024-01-04T00:38:14.202Z,7.50
2024-01-04T00:40:46.000Z,7.50
2024-01-04T00:43:16.049Z,7.50
2024-01-04T00:45:46.357Z,7.50
2024-01-04T00:48:16.589Z,7.50
2024-01-04T00:50:48.455Z,7.50
2024-01-04T00:53:18.617Z,7.50
2024-01-04T00:55:49.785Z,7.50
2024-01-04T00:58:20.194Z,7.60
2024-01-04T01:00:50.682Z,7.60
2024-01-04T01:03:20.812Z,7.60
2024-01-04T01:05:52.775Z,7.60
2024-01-04T01:08:22.806Z,7.60
2024-01-04T01:10:53.612Z,7.70
2024-01-04T01:13:23.633Z,7.70
2024-01-04T01:15:54.030Z,7.70
2024-01-04T01:18:24.145Z,7.70
2024-01-04T01:20:56.879Z,7.70
2024-01-04T01:23:27.090Z,7.80
2024-01-04T01:25:57.928Z,7.70
2024-01-04T01:28:28.064Z,7.70
2024-01-04T01:30:58.669Z,7.70
2024-01-04T01:33:28.952Z,7.70
2024-01-04T01:36:02.801Z,7.70
2024-01-04T01:38:32.730Z,7.70
2024-01-04T01:41:04.231Z,7.60
2024-01-04T01:43:34.543Z,7.60
2024-01-04T01:46:05.613Z,7.60
2024-01-04T01:48:35.761Z,7.60
2024-01-04T01:51:08.590Z,7.60
2024-01-04T01:53:39.480Z,7.60
2024-01-04T01:56:09.914Z,7.60
2024-01-04T01:58:39.945Z,7.50
2024-01-04T02:01:10.911Z,7.50
2024-01-04T02:03:41.566Z,7.60
2024-01-04T02:06:13.615Z,7.60
2024-01-04T02:08:47.545Z,7.60
2024-01-04T02:11:18.382Z,7.60
2024-01-04T02:13:48.408Z,7.60
2024-01-04T02:16:19.143Z,7.60
2024-01-04T02:18:49.460Z,7.60
2024-01-04T02:21:23.413Z,7.60
2024-01-04T02:23:55.060Z,7.60
2024-01-04T02:26:25.634Z,7.60
2024-01-04T02:28:55.676Z,7.60
2024-01-04T02:31:26.183Z,7.60
2024-01-04T02:33:56.291Z,7.70
2024-01-04T02:36:27.887Z,7.70
2024-01-04T02:38:59.462Z,7.70
2024-01-04T02:41:30.151Z,7.60
2024-01-04T02:44:00.307Z,7.70
2024-01-04T02:46:31.521Z,7.70
2024-01-04T02:49:01.671Z,7.70
2024-01-04T02:51:32.084Z,7.70
2024-01-04T02:54:03.954Z,7.60
2024-01-04T02:56:34.599Z,7.60
2024-01-04T02:59:04.654Z,7.60
2024-01-04T03:01:35.642Z,7.60
2024-01-04T03:04:06.116Z,7.60
2024-01-04T03:06:36.516Z,7.50
2024-01-04T03:09:08.669Z,7.40
2024-01-04T03:11:39.594Z,7.40
2024-01-04T03:14:10.010Z,7.40
2024-01-04T03:16:40.557Z,7.40
2024-01-04T03:19:10.766Z,7.40
2024-01-04T03:21:41.412Z,7.30
2024-01-04T03:24:12.959Z,7.20
2024-01-04T03:26:43.465Z,7.20
2024-01-04T03:29:13.513Z,7.10
2024-01-04T03:31:43.860Z,7.10
2024-01-04T03:34:13.844Z,7.10
2024-01-04T03:36:44.278Z,7.00
2024-01-04T03:39:15.917Z,7.00
2024-01-04T03:41:46.547Z,7.00
2024-01-04T03:44:16.464Z,7.00
2024-01-04T03:46:47.146Z,7.00
2024-01-04T03:49:17.241Z,6.90
2024-01-04T03:51:47.939Z,7.00
2024-01-04T03:54:19.503Z,6.90
2024-01-04T03:56:50.029Z,6.80
2024-01-04T03:59:20.062Z,6.80
2024-01-04T04:01:50.988Z,6.80
2024-01-04T04:04:21.334Z,6.80
2024-01-04T04:06:51.862Z,6.90
2024-01-04T04:09:23.454Z,6.90
2024-01-04T04:11:53.971Z,6.90
2024-01-04T04:14:24.481Z,6.90
2024-01-04T04:16:54.748Z,7.00
2024-01-04T04:19:24.826Z,6.90
2024-01-04T04:21:55.480Z,7.00
2024-01-04T04:24:27.073Z,7.00
2024-01-04T04:26:57.496Z,7.00
2024-01-04T04:29:27.554Z,7.00
2024-01-04T04:31:58.129Z,7.00
2024-01-04T04:34:31.615Z,7.00
2024-01-04T04:37:02.444Z,7.00
2024-01-04T04:39:34.055Z,7.00
2024-01-04T04:42:05.252Z,7.00
2024-01-04T04:44:35.651Z,7.00
2024-01-04T04:47:07.557Z,7.10
2024-01-04T04:49:38.248Z,7.20
2024-01-04T04:52:10.718Z,7.20
2024-01-04T04:54:43.503Z,7.10
2024-01-04T04:57:15.628Z,7.10
2024-01-04T04:59:46.495Z,7.20
2024-01-04T05:02:17.270Z,7.20
2024-01-04T05:04:47.983Z,7.20
2024-01-04T05:07:18.716Z,7.20
2024-01-04T05:09:50.394Z,7.20
2024-01-04T05:12:21.264Z,7.20
2024-01-04T05:14:51.919Z,7.20
2024-01-04T05:17:22.818Z,7.20
2024-01-04T05:19:53.307Z,7.20
2024-01-04T05:22:24.468Z,7.20
2024-01-04T05:24:56.024Z,7.20
2024-01-04T05:27:29.222Z,7.20
2024-01-04T05:29:59.949Z,7.20
2024-01-04T05:32:32.073Z,7.20
2024-01-04T05:35:02.659Z,7.30
2024-01-04T05:37:33.761Z,7.30
2024-01-04T05:40:06.832Z,7.30
2024-01-04T05:42:38.100Z,7.30
2024-01-04T05:45:10.696Z,7.30
2024-01-04T05:47:41.399Z,7.30
2024-01-04T05:50:12.022Z,7.30
2024-01-04T05:52:42.492Z,7.30
2024-01-04T05:55:14.151Z,7.30
2024-01-04T05:57:45.213Z,7.30
2024-01-04T06:00:18.635Z,7.30
2024-01-04T06:02:50.190Z,7.40
2024-01-04T06:05:21.626Z,7.40
2024-01-04T06:07:55.524Z,7.30
2024-01-04T06:10:27.922Z,7.30
2024-01-04T06:13:00.647Z,7.20
2024-01-04T06:15:32.438Z,7.20
2024-01-04T06:18:03.376Z,7.30
2024-01-04T06:20:34.425Z,7.20
2024-01-04T06:23:05.772Z,7.20
2024-01-04T06:25:37.283Z,7.20
2024-01-04T06:28:09.523Z,7.10
2024-01-04T06:30:42.080Z,7.10
2024-01-04T06:33:12.824Z,7.10
2024-01-04T06:35:44.000Z,7.10
2024-01-04T06:38:15.998Z,7.00
2024-01-04T06:40:48.669Z,7.00
2024-01-04T06:43:19.985Z,7.10
2024-01-04T06:45:50.038Z,7.10
2024-01-04T06:48:22.350Z,7.10
2024-01-04T06:50:52.725Z,7.00
2024-01-04T06:53:25.193Z,7.10
2024-01-04T06:55:57.459Z,7.10
2024-01-04T06:58:28.131Z,7.10
2024-01-04T07:00:59.131Z,7.20
2024-01-04T07:03:30.972Z,7.10
2024-01-04T07:06:01.722Z,7.10
2024-01-04T07:08:33.547Z,7.10
2024-01-04T07:11:08.036Z,7.10
2024-01-04T07:13:40.575Z,7.10
2024-01-04T07:16:11.271Z,7.10
2024-01-04T07:18:42.235Z,7.10
2024-01-04T07:21:14.658Z,7.10
2024-01-04T07:23:45.379Z,7.10
2024-01-04T07:26:17.583Z,7.10
2024-01-04T07:28:55.258Z,7.20
2024-01-04T07:31:25.984Z,7.30
2024-01-04T07:33:57.720Z,7.40
2024-01-04T07:36:28.619Z,7.40
2024-01-04T07:39:01.267Z,7.40
2024-01-04T07:41:37.385Z,7.40
2024-01-04T07:44:13.414Z,7.40
2024-01-04T07:46:44.662Z,7.30
2024-01-04T07:49:19.003Z,7.40
2024-01-04T07:51:49.894Z,7.50
2024-01-04T07:54:23.960Z,7.50
2024-01-04T07:56:59.000Z,7.50
2024-01-04T07:59:31.939Z,7.70
2024-01-04T08:02:04.229Z,7.70
2024-01-04T08:04:38.831Z,7.60
2024-01-04T08:07:10.707Z,7.70
2024-01-04T08:09:42.661Z,7.70
2024-01-04T08:12:15.037Z,7.80
2024-01-04T08:14:46.712Z,7.80
2024-01-04T08:17:17.150Z,7.80
2024-01-04T08:19:49.028Z,7.70
2024-01-04T08:22:19.901Z,7.70
2024-01-04T08:24:51.007Z,7.70
2024-01-04T08:27:23.212Z,7.60
2024-01-04T08:29:53.908Z,7.70
2024-01-04T08:32:24.319Z,7.70
2024-01-04T08:34:55.028Z,7.60
2024-01-04T08:37:25.069Z,7.60
2024-01-04T08:39:56.206Z,7.50
2024-01-04T08:42:29.108Z,7.50
2024-01-04T08:45:00.053Z,7.50
2024-01-04T08:47:30.805Z,7.50
2024-01-04T08:50:02.926Z,7.60
2024-01-04T08:52:34.535Z,7.60
2024-01-04T08:55:05.802Z,7.60
2024-01-04T08:57:37.500Z,7.50
2024-01-04T09:00:12.166Z,7.60
2024-01-04T09:02:42.667Z,7.60
2024-01-04T09:05:13.771Z,7.50
2024-01-04T09:07:43.910Z,7.50
2024-01-04T09:10:14.441Z,7.50
2024-01-04T09:12:46.861Z,7.40
2024-01-04T09:15:18.305Z,7.50
2024-01-04T09:17:48.568Z,7.60
2024-01-04T09:20:19.688Z,7.60
2024-01-04T09:22:50.775Z,7.70
2024-01-04T09:25:21.528Z,7.70
2024-01-04T09:27:53.261Z,7.80
2024-01-04T09:30:24.321Z,7.70
2024-01-04T09:32:55.503Z,7.60
2024-01-04T09:35:26.858Z,7.60
2024-01-04T09:37:57.161Z,7.50
2024-01-04T09:40:28.382Z,7.50
2024-01-04T09:43:02.559Z,7.40
2024-01-04T09:45:37.683Z,7.40
2024-01-04T09:48:21.237Z,7.40
2024-01-04T09:50:59.157Z,7.30
2024-01-04T09:53:30.129Z,7.30
2024-01-04T09:56:04.190Z,7.20
2024-01-04T09:58:35.802Z,7.20
2024-01-04T10:01:07.501Z,7.20
2024-01-04T10:03:39.516Z,7.20
2024-01-04T10:06:13.361Z,7.20
2024-01-04T10:08:48.606Z,7.20
2024-01-04T10:11:27.351Z,7.20
2024-01-04T10:13:59.825Z,7.20
2024-01-04T10:16:32.141Z,7.30
2024-01-04T10:19:02.939Z,7.40
2024-01-04T10:21:35.314Z,7.40
2024-01-04T10:24:06.917Z,7.40
2024-01-04T10:26:37.710Z,7.50
2024-01-04T10:29:09.484Z,7.60
2024-01-04T10:31:39.949Z,7.60
2024-01-04T10:34:10.990Z,7.60
2024-01-04T10:36:41.809Z,7.60
2024-01-04T10:39:12.253Z,7.60
2024-01-04T10:41:42.986Z,7.70
2024-01-04T10:44:14.644Z,7.80
2024-01-04T10:46:45.357Z,7.80
2024-01-04T10:49:19.298Z,7.80
2024-01-04T10:51:53.743Z,7.90
2024-01-04T10:54:32.207Z,7.90
2024-01-04T10:57:04.002Z,8.00
2024-01-04T10:59:36.519Z,7.90
2024-01-04T11:02:07.585Z,8.00
2024-01-04T11:04:39.222Z,7.80
2024-01-04T11:07:10.931Z,7.80
2024-01-04T11:09:41.391Z,7.70
2024-01-04T11:12:16.354Z,7.70
2024-01-04T11:14:48.071Z,7.80
2024-01-04T11:17:44.936Z,7.70
2024-01-04T11:20:24.810Z,7.70
2024-01-04T11:23:24.672Z,7.60
2024-01-04T11:26:24.925Z,7.60
2024-01-04T11:28:57.898Z,7.70
2024-01-04T11:31:29.579Z,7.70
2024-01-04T11:34:05.409Z,7.80
2024-01-04T11:36:36.288Z,7.80
2024-01-04T11:39:13.438Z,7.90
2024-01-04T11:41:43.735Z,7.90
2024-01-04T11:44:20.302Z,8.00
2024-01-04T11:46:59.725Z,8.00
2024-01-04T11:49:32.613Z,8.10
2024-01-04T11:52:05.743Z,8.10
2024-01-04T11:54:38.993Z,8.10
2024-01-04T11:57:21.791Z,8.10
2024-01-04T11:59:54.825Z,8.00
2024-01-04T12:02:28.379Z,8.10
2024-01-04T12:05:00.760Z,8.20
2024-01-04T12:07:37.547Z,8.10
2024-01-04T12:10:11.793Z,8.20
2024-01-04T12:12:49.437Z,8.20
2024-01-04T12:15:23.255Z,8.20
2024-01-04T12:17:58.915Z,8.10
2024-01-04T12:20:35.127Z,7.80
2024-01-04T12:23:12.023Z,7.70
2024-01-04T12:25:46.487Z,7.80
2024-01-04T12:28:17.195Z,7.70
2024-01-04T12:30:52.229Z,7.60
2024-01-04T12:33:32.885Z,7.60
2024-01-04T12:36:13.455Z,6.80
2024-01-04T12:38:45.697Z,5.50
2024-01-04T12:41:27.424Z,5.40
2024-01-04T12:44:00.130Z,5.50
2024-01-04T12:46:34.636Z,5.40
2024-01-04T12:49:20.313Z,5.40
2024-01-04T12:51:56.687Z,5.40
2024-01-04T12:54:34.526Z,5.50
2024-01-04T12:57:07.055Z,5.50
2024-01-04T12:59:39.724Z,5.40
2024-01-04T13:02:40.647Z,5.50
2024-01-04T13:05:17.179Z,5.50
2024-01-04T13:07:50.912Z,5.60
2024-01-04T13:10:23.332Z,5.60
2024-01-04T13:12:57.041Z,5.60
2024-01-04T13:15:31.508Z,5.60
2024-01-04T13:18:09.605Z,5.60
2024-01-04T13:20:47.016Z,5.60
2024-01-04T13:23:19.843Z,5.60
2024-01-04T13:25:51.046Z,5.60
2024-01-04T13:28:22.530Z,5.60
2024-01-04T13:30:59.570Z,5.70
2024-01-04T13:33:34.343Z,5.70
2024-01-04T13:36:09.638Z,5.80
2024-01-04T13:38:45.104Z,5.80
2024-01-04T13:41:27.009Z,5.70
2024-01-04T13:44:06.718Z,5.70
2024-01-04T13:46:41.490Z,5.70
2024-01-04T13:49:14.760Z,5.50
2024-01-04T13:51:48.954Z,5.40
2024-01-04T13:54:23.472Z,5.40
2024-01-04T13:56:59.627Z,5.30
2024-01-04T13:59:34.981Z,5.30
2024-01-04T14:02:07.377Z,5.20
2024-01-04T14:04:39.118Z,5.10
2024-01-04T14:07:14.474Z,5.00
2024-01-04T14:09:47.791Z,4.90
2024-01-04T14:12:21.675Z,4.90
2024-01-04T14:14:53.962Z,4.90
2024-01-04T14:17:26.390Z,4.90
2024-01-04T14:20:03.015Z,4.80
2024-01-04T14:22:37.027Z,4.90
2024-01-04T14:25:09.342Z,4.90
2024-01-04T14:27:40.449Z,4.90
2024-01-04T14:30:12.237Z,4.80
2024-01-04T14:32:42.668Z,4.80
2024-01-04T14:35:14.082Z,4.80
2024-01-04T14:37:45.922Z,4.80
2024-01-04T14:40:18.341Z,4.80
2024-01-04T14:42:49.352Z,4.80
2024-01-04T14:45:23.225Z,4.90
2024-01-04T14:47:53.544Z,4.80
2024-01-04T14:50:24.666Z,4.80
2024-01-04T14:52:57.505Z,4.80
2024-01-04T14:55:27.984Z,4.70
2024-01-04T14:57:58.091Z,4.70
2024-01-04T15:00:28.720Z,4.70
2024-01-04T15:02:59.056Z,4.60
2024-01-04T15:05:30.268Z,4.60
2024-01-04T15:08:05.459Z,4.60
2024-01-04T15:10:35.881Z,4.70
2024-01-04T15:13:08.446Z,4.60
2024-01-04T15:15:39.289Z,4.50
2024-01-04T15:18:09.655Z,4.50
2024-01-04T15:20:40.265Z,4.50
2024-01-04T15:23:14.610Z,4.50
2024-01-04T15:25:46.289Z,4.50
2024-01-04T15:28:16.679Z,4.50
2024-01-04T15:30:50.665Z,4.40
2024-01-04T15:33:23.343Z,4.50
2024-01-04T15:35:54.158Z,4.50
2024-01-04T15:38:25.953Z,4.40
2024-01-04T15:40:56.938Z,4.30
2024-01-04T15:43:27.166Z,4.40
2024-01-04T15:45:57.824Z,4.40
2024-01-04T15:48:29.052Z,4.40
2024-01-04T15:51:02.199Z,4.30
2024-01-04T15:53:34.367Z,4.30
2024-01-04T15:56:05.352Z,4.30
2024-01-04T15:58:36.198Z,4.10
2024-01-04T16:01:11.559Z,4.20
2024-01-04T16:03:42.425Z,4.10
2024-01-04T16:06:13.629Z,4.10
2024-01-04T16:08:48.364Z,4.00
2024-01-04T16:11:26.714Z,4.00
2024-01-04T16:14:04.422Z,4.00
2024-01-04T16:16:37.126Z,4.00
2024-01-04T16:19:08.726Z,4.00
2024-01-04T16:21:43.808Z,3.80
2024-01-04T16:24:37.996Z,3.80
2024-01-04T16:27:13.017Z,3.80
2024-01-04T16:29:45.187Z,3.70
2024-01-04T16:32:16.935Z,3.80
2024-01-04T16:34:52.035Z,3.80
2024-01-04T16:37:23.667Z,3.80
2024-01-04T16:39:57.942Z,3.70
2024-01-04T16:42:33.030Z,3.70
2024-01-04T16:45:07.753Z,3.70
2024-01-04T16:47:41.560Z,3.70
2024-01-04T16:50:15.456Z,3.70
2024-01-04T16:52:48.322Z,3.60
2024-01-04T16:55:25.161Z,3.60
2024-01-04T16:57:59.100Z,3.60
2024-01-04T17:00:29.667Z,3.60
2024-01-04T17:03:20.513Z,3.50
2024-01-04T17:05:53.613Z,3.50
2024-01-04T17:08:24.497Z,3.50
2024-01-04T17:10:56.453Z,3.40
2024-01-04T17:13:27.140Z,3.30
2024-01-04T17:15:57.474Z,3.30
2024-01-04T17:18:30.432Z,3.30
2024-01-04T17:21:00.948Z,3.30
2024-01-04T17:23:36.748Z,3.20
2024-01-04T17:26:09.768Z,3.30
2024-01-04T17:28:44.888Z,3.30
2024-01-04T17:31:15.263Z,3.20
2024-01-04T17:33:47.591Z,3.30
2024-01-04T17:36:25.814Z,3.30
2024-01-04T17:39:02.327Z,3.30
2024-01-04T17:41:38.826Z,3.30
2024-01-04T17:44:10.276Z,3.30
2024-01-04T17:46:43.125Z,3.30
2024-01-04T17:49:13.885Z,3.30
2024-01-04T17:51:44.239Z,3.30
2024-01-04T17:54:14.956Z,3.20
2024-01-04T17:56:46.898Z,3.30
2024-01-04T17:59:20.494Z,3.20
2024-01-04T18:01:54.790Z,3.20
2024-01-04T18:04:25.424Z,3.20
2024-01-04T18:06:55.665Z,3.10
2024-01-04T18:09:26.353Z,3.10
2024-01-04T18:11:58.199Z,3.10
2024-01-04T18:14:31.996Z,3.10
2024-01-04T18:17:02.834Z,3.10
2024-01-04T18:19:33.779Z,3.10
2024-01-04T18:22:07.087Z,3.10
2024-01-04T18:24:37.791Z,3.10
2024-01-04T18:27:09.991Z,3.10
2024-01-04T18:29:40.523Z,3.10
2024-01-04T18:32:15.205Z,3.00
2024-01-04T18:34:46.282Z,3.00
2024-01-04T18:37:16.593Z,2.90
2024-01-04T18:39:47.420Z,2.90
2024-01-04T18:42:26.030Z,2.90
2024-01-04T18:44:56.760Z,2.90
2024-01-04T18:47:27.238Z,2.90
2024-01-04T18:49:58.058Z,2.90
2024-01-04T18:52:29.700Z,2.90
2024-01-04T18:55:02.824Z,2.70
2024-01-04T18:57:34.969Z,2.30
2024-01-04T19:00:10.879Z,2.20
2024-01-04T19:02:52.277Z,2.10
2024-01-04T19:05:23.041Z,2.00
2024-01-04T19:07:53.449Z,1.70
2024-01-04T19:10:23.856Z,1.70
2024-01-04T19:12:55.317Z,1.70
2024-01-04T19:18:06.438Z,1.70
2024-01-04T19:20:37.629Z,1.80
2024-01-04T19:23:07.948Z,1.80
2024-01-04T19:25:41.087Z,1.80
2024-01-04T19:28:13.784Z,1.80
2024-01-04T19:30:48.880Z,1.70
2024-01-04T19:33:22.267Z,1.70
2024-01-04T19:35:53.188Z,1.60
2024-01-04T19:38:23.781Z,1.60
2024-01-04T19:40:54.298Z,1.50
2024-01-04T19:43:26.889Z,1.50
2024-01-04T19:46:03.930Z,1.50
2024-01-04T19:48:37.761Z,1.60
2024-01-04T19:51:09.184Z,1.50
2024-01-04T19:53:40.625Z,1.60
2024-01-04T19:56:11.181Z,1.50
2024-01-04T19:58:44.500Z,1.50
2024-01-04T20:01:15.032Z,1.40
2024-01-04T20:03:47.048Z,1.40
2024-01-04T20:06:18.066Z,1.40
2024-01-04T20:08:48.693Z,1.40
2024-01-04T20:11:19.364Z,1.40
2024-01-04T20:13:52.261Z,1.30
2024-01-04T20:16:23.215Z,1.30
2024-01-04T20:18:57.044Z,1.30
2024-01-04T20:21:48.310Z,1.30
2024-01-04T20:24:20.059Z,1.30
2024-01-04T20:26:50.814Z,1.30
2024-01-04T20:29:22.539Z,1.30
2024-01-04T20:31:53.352Z,1.20
2024-01-04T20:34:24.573Z,1.30
2024-01-04T20:36:55.809Z,1.20
2024-01-04T20:39:26.074Z,1.20
2024-01-04T20:41:56.956Z,1.20
2024-01-04T20:44:28.746Z,1.20
2024-01-04T20:47:01.041Z,1.20
2024-01-04T20:49:32.097Z,1.20
2024-01-04T20:52:02.976Z,1.20
2024-01-04T20:54:35.325Z,1.10
2024-01-04T20:57:06.357Z,1.10
2024-01-04T20:59:38.183Z,0.90
2024-01-04T21:02:08.866Z,0.80
2024-01-04T21:04:39.208Z,0.80
2024-01-04T21:07:11.895Z,0.80
2024-01-04T21:09:44.537Z,0.70
2024-01-04T21:12:15.805Z,0.70
2024-01-04T21:14:55.167Z,0.70
2024-01-04T21:17:31.706Z,0.80
2024-01-04T21:20:07.524Z,0.80
2024-01-04T21:22:39.177Z,0.70
2024-01-04T21:25:11.252Z,0.70
2024-01-04T21:27:55.890Z,0.80
2024-01-04T21:30:30.551Z,0.70
2024-01-04T21:33:03.314Z,0.70
2024-01-04T21:35:37.110Z,0.60
2024-01-04T21:38:09.584Z,0.50
2024-01-04T21:40:41.323Z,0.30
2024-01-04T21:43:16.838Z,0.30
2024-01-04T21:45:51.193Z,0.20
2024-01-04T21:48:27.675Z,0.20
2024-01-04T21:50:59.646Z,0.10
2024-01-04T21:53:34.291Z,0.10
2024-01-04T21:56:28.128Z,0.10
2024-01-04T21:59:24.891Z,0.10
2024-01-04T22:02:03.498Z,0.10
2024-01-04T22:04:38.947Z,0.20
2024-01-04T22:07:12.748Z,0.10
2024-01-04T22:09:47.794Z,0.20
2024-01-04T22:12:21.834Z,0.20
2024-01-04T22:14:53.526Z,0.20
2024-01-04T22:17:27.329Z,0.20
2024-01-04T22:19:58.981Z,0.20
2024-01-04T22:22:30.756Z,0.20
2024-01-04T22:25:02.877Z,0.20
2024-01-04T22:27:36.028Z,0.20
2024-01-04T22:30:12.970Z,0.30
2024-01-04T22:32:58.243Z,0.30
2024-01-04T22:35:34.357Z,0.30
2024-01-04T22:38:10.937Z,0.30
2024-01-04T22:40:43.310Z,0.30
2024-01-04T22:43:19.462Z,0.20
2024-01-04T22:45:51.820Z,0.20
2024-01-04T22:48:30.910Z,0.20
2024-01-04T22:51:04.339Z,0.20
2024-01-04T22:53:35.650Z,0.20
2024-01-04T22:56:15.658Z,0.20
2024-01-04T22:58:53.341Z,0.20
2024-01-04T23:01:27.289Z,0.20
2024-01-04T23:04:00.413Z,0.20
2024-01-04T23:06:36.504Z,0.20
2024-01-04T23:09:07.494Z,0.20
2024-01-04T23:11:38.685Z,0.20
2024-01-04T23:14:10.918Z,0.20
2024-01-04T23:16:42.973Z,0.10
2024-01-04T23:19:15.977Z,0.10
2024-01-04T23:21:46.699Z,0.10
2024-01-04T23:24:17.024Z,0.10
2024-01-04T23:26:48.326Z,0.10
2024-01-04T23:29:18.488Z,0.10
2024-01-04T23:31:49.262Z,0.10
2024-01-04T23:34:21.013Z,0.00
2024-01-04T23:36:51.881Z,0.10
2024-01-04T23:39:22.210Z,0.00
2024-01-04T23:41:53.491Z,0.00
2024-01-04T23:44:23.871Z,0.00
2024-01-04T23:46:54.318Z,0.10
2024-01-04T23:49:26.062Z,0.00
2024-01-04T23:52:00.131Z,0.00
2024-01-04T23:54:31.160Z,0.00
2024-01-04T23:57:01.897Z,0.00
2024-01-04T23:59:32.114Z,0.00
